sensor_id;sensor_type;location;lat;lon;timestamp;pressure;altitude;pressure_sealevel;temperature;humidity
57990;BME280;58373;51.824;5.564;2023-03-22T00:01:09;100898.13;;;8.83;92.38
57990;BME280;58373;51.824;5.564;2023-03-22T00:03:35;100899.03;;;8.82;92.40
57990;BME280;58373;51.824;5.564;2023-03-22T00:06:00;100892.34;;;8.80;92.41
57990;BME280;58373;51.824;5.564;2023-03-22T00:08:25;100887.28;;;8.78;92.21
57990;BME280;58373;51.824;5.564;2023-03-22T00:10:50;100883.03;;;8.77;92.33
57990;BME280;58373;51.824;5.564;2023-03-22T00:13:16;100888.44;;;8.74;92.01
57990;BME280;58373;51.824;5.564;2023-03-22T00:15:41;100885.97;;;8.72;92.19
57990;BME280;58373;51.824;5.564;2023-03-22T00:18:08;100882.44;;;8.73;92.51
57990;BME280;58373;51.824;5.564;2023-03-22T00:20:36;100880.00;;;8.72;92.00
57990;BME280;58373;51.824;5.564;2023-03-22T00:23:03;100870.56;;;8.71;91.98
57990;BME280;58373;51.824;5.564;2023-03-22T00:25:28;100875.84;;;8.69;91.96
57990;BME280;58373;51.824;5.564;2023-03-22T00:27:53;100868.22;;;8.68;92.17
57990;BME280;58373;51.824;5.564;2023-03-22T00:30:19;100863.25;;;8.65;92.09
57990;BME280;58373;51.824;5.564;2023-03-22T00:32:44;100861.41;;;8.67;92.16
57990;BME280;58373;51.824;5.564;2023-03-22T00:35:09;100859.03;;;8.64;92.33
57990;BME280;58373;51.824;5.564;2023-03-22T00:37:35;100856.44;;;8.64;92.10
57990;BME280;58373;51.824;5.564;2023-03-22T00:40:11;100858.19;;;8.63;92.13
57990;BME280;58373;51.824;5.564;2023-03-22T00:42:37;100847.97;;;8.62;91.73
57990;BME280;58373;51.824;5.564;2023-03-22T00:45:03;100847.16;;;8.61;91.99
57990;BME280;58373;51.824;5.564;2023-03-22T00:47:29;100848.19;;;8.59;92.10
57990;BME280;58373;51.824;5.564;2023-03-22T00:49:54;100841.38;;;8.58;91.98
57990;BME280;58373;51.824;5.564;2023-03-22T00:52:19;100835.59;;;8.54;91.95
57990;BME280;58373;51.824;5.564;2023-03-22T00:54:45;100843.47;;;8.52;92.18
57990;BME280;58373;51.824;5.564;2023-03-22T00:57:11;100833.38;;;8.49;92.34
57990;BME280;58373;51.824;5.564;2023-03-22T00:59:38;100845.56;;;8.47;92.29
57990;BME280;58373;51.824;5.564;2023-03-22T01:02:04;100834.63;;;8.44;91.77
57990;BME280;58373;51.824;5.564;2023-03-22T01:04:30;100827.19;;;8.39;92.28
57990;BME280;58373;51.824;5.564;2023-03-22T01:06:55;100822.25;;;8.36;92.22
57990;BME280;58373;51.824;5.564;2023-03-22T01:09:23;100814.81;;;8.32;92.27
57990;BME280;58373;51.824;5.564;2023-03-22T01:11:52;100807.38;;;8.27;92.26
57990;BME280;58373;51.824;5.564;2023-03-22T01:14:17;100811.00;;;8.24;92.36
57990;BME280;58373;51.824;5.564;2023-03-22T01:16:43;100800.78;;;8.23;92.18
57990;BME280;58373;51.824;5.564;2023-03-22T01:19:08;100792.53;;;8.18;92.60
57990;BME280;58373;51.824;5.564;2023-03-22T01:21:34;100794.19;;;8.19;92.94
57990;BME280;58373;51.824;5.564;2023-03-22T01:23:59;100777.03;;;8.18;92.70
57990;BME280;58373;51.824;5.564;2023-03-22T01:26:24;100780.56;;;8.17;92.84
57990;BME280;58373;51.824;5.564;2023-03-22T01:28:49;100780.56;;;8.17;92.64
57990;BME280;58373;51.824;5.564;2023-03-22T01:31:15;100771.16;;;8.16;92.73
57990;BME280;58373;51.824;5.564;2023-03-22T01:33:40;100760.09;;;8.14;93.00
57990;BME280;58373;51.824;5.564;2023-03-22T01:36:05;100758.47;;;8.13;92.96
57990;BME280;58373;51.824;5.564;2023-03-22T01:38:31;100758.25;;;8.16;93.06
57990;BME280;58373;51.824;5.564;2023-03-22T01:40:56;100753.09;;;8.16;93.32
57990;BME280;58373;51.824;5.564;2023-03-22T01:43:21;100744.38;;;8.17;93.63
57990;BME280;58373;51.824;5.564;2023-03-22T01:45:47;100733.13;;;8.18;93.50
57990;BME280;58373;51.824;5.564;2023-03-22T01:50:41;100725.25;;;8.19;93.82
57990;BME280;58373;51.824;5.564;2023-03-22T01:53:08;100716.47;;;8.22;94.03
57990;BME280;58373;51.824;5.564;2023-03-22T01:55:34;100719.75;;;8.24;93.95
57990;BME280;58373;51.824;5.564;2023-03-22T01:58:01;100714.47;;;8.25;94.00
57990;BME280;58373;51.824;5.564;2023-03-22T02:00:27;100710.84;;;8.28;94.33
57990;BME280;58373;51.824;5.564;2023-03-22T02:02:53;100703.78;;;8.30;94.30
57990;BME280;58373;51.824;5.564;2023-03-22T02:05:18;100707.09;;;8.32;94.35
57990;BME280;58373;51.824;5.564;2023-03-22T02:07:46;100696.53;;;8.35;94.63
57990;BME280;58373;51.824;5.564;2023-03-22T02:10:13;100695.53;;;8.38;94.69
57990;BME280;58373;51.824;5.564;2023-03-22T02:15:11;100685.75;;;8.41;94.52
57990;BME280;58373;51.824;5.564;2023-03-22T02:25:55;100683.66;;;8.46;94.61
57990;BME280;58373;51.824;5.564;2023-03-22T02:28:44;100686.25;;;8.46;95.12
57990;BME280;58373;51.824;5.564;2023-03-22T02:38:56;100676.38;;;8.51;95.14
57990;BME280;58373;51.824;5.564;2023-03-22T02:44:02;100672.03;;;8.52;95.83
57990;BME280;58373;51.824;5.564;2023-03-22T02:46:43;100664.16;;;8.54;96.18
57990;BME280;58373;51.824;5.564;2023-03-22T02:51:57;100663.13;;;8.56;96.28
57990;BME280;58373;51.824;5.564;2023-03-22T02:55:09;100663.94;;;8.57;95.80
57990;BME280;58373;51.824;5.564;2023-03-22T02:57:14;100656.06;;;8.58;96.52
57990;BME280;58373;51.824;5.564;2023-03-22T02:59:41;100648.19;;;8.60;96.53
57990;BME280;58373;51.824;5.564;2023-03-22T03:02:08;100643.00;;;8.60;96.86
57990;BME280;58373;51.824;5.564;2023-03-22T03:04:36;100639.50;;;8.61;96.97
57990;BME280;58373;51.824;5.564;2023-03-22T03:07:04;100642.78;;;8.63;96.83
57990;BME280;58373;51.824;5.564;2023-03-22T03:09:31;100632.44;;;8.63;96.72
57990;BME280;58373;51.824;5.564;2023-03-22T03:11:57;100628.91;;;8.64;96.55
57990;BME280;58373;51.824;5.564;2023-03-22T03:14:23;100630.56;;;8.65;96.80
57990;BME280;58373;51.824;5.564;2023-03-22T03:19:44;100627.88;;;8.66;96.73
57990;BME280;58373;51.824;5.564;2023-03-22T03:22:35;100635.50;;;8.68;97.20
57990;BME280;58373;51.824;5.564;2023-03-22T03:25:12;100631.97;;;8.69;97.13
57990;BME280;58373;51.824;5.564;2023-03-22T03:28:03;100629.03;;;8.73;97.11
57990;BME280;58373;51.824;5.564;2023-03-22T03:30:31;100623.88;;;8.73;97.28
57990;BME280;58373;51.824;5.564;2023-03-22T03:33:08;100629.88;;;8.74;97.53
57990;BME280;58373;51.824;5.564;2023-03-22T03:35:39;100635.72;;;8.76;97.51
57990;BME280;58373;51.824;5.564;2023-03-22T03:38:09;100625.28;;;8.77;97.10
57990;BME280;58373;51.824;5.564;2023-03-22T03:40:39;100627.75;;;8.79;97.60
57990;BME280;58373;51.824;5.564;2023-03-22T03:43:06;100629.38;;;8.80;97.10
57990;BME280;58373;51.824;5.564;2023-03-22T03:45:33;100631.03;;;8.81;97.33
57990;BME280;58373;51.824;5.564;2023-03-22T03:48:00;100634.34;;;8.83;97.26
57990;BME280;58373;51.824;5.564;2023-03-22T03:50:26;100638.56;;;8.84;97.37
57990;BME280;58373;51.824;5.564;2023-03-22T03:52:52;100631.63;;;8.85;97.26
57990;BME280;58373;51.824;5.564;2023-03-22T03:55:18;100633.41;;;8.84;97.29
57990;BME280;58373;51.824;5.564;2023-03-22T03:57:43;100637.63;;;8.85;97.13
57990;BME280;58373;51.824;5.564;2023-03-22T04:00:08;100631.63;;;8.85;96.97
57990;BME280;58373;51.824;5.564;2023-03-22T04:02:34;100641.84;;;8.86;96.88
57990;BME280;58373;51.824;5.564;2023-03-22T04:04:59;100645.25;;;8.87;96.83
57990;BME280;58373;51.824;5.564;2023-03-22T04:07:24;100632.66;;;8.82;96.93
57990;BME280;58373;51.824;5.564;2023-03-22T04:09:50;100637.03;;;8.82;97.23
57990;BME280;58373;51.824;5.564;2023-03-22T04:12:15;100630.22;;;8.81;97.42
57990;BME280;58373;51.824;5.564;2023-03-22T04:14:40;100632.91;;;8.79;96.97
57990;BME280;58373;51.824;5.564;2023-03-22T04:17:05;100629.63;;;8.77;97.31
57990;BME280;58373;51.824;5.564;2023-03-22T04:19:31;100621.16;;;8.75;96.94
57990;BME280;58373;51.824;5.564;2023-03-22T04:21:56;100620.34;;;8.74;97.01
57990;BME280;58373;51.824;5.564;2023-03-22T04:24:21;100615.28;;;8.73;96.91
57990;BME280;58373;51.824;5.564;2023-03-22T04:26:47;100622.34;;;8.71;96.79
57990;BME280;58373;51.824;5.564;2023-03-22T04:29:12;100620.81;;;8.68;97.01
57990;BME280;58373;51.824;5.564;2023-03-22T04:31:38;100618.34;;;8.67;96.90
57990;BME280;58373;51.824;5.564;2023-03-22T04:34:03;100613.41;;;8.64;96.93
57990;BME280;58373;51.824;5.564;2023-03-22T04:36:30;100614.34;;;8.63;97.11
57990;BME280;58373;51.824;5.564;2023-03-22T04:38:59;100606.81;;;8.60;97.29
57990;BME280;58373;51.824;5.564;2023-03-22T04:41:25;100612.00;;;8.60;97.14
57990;BME280;58373;51.824;5.564;2023-03-22T04:43:50;100608.72;;;8.58;96.72
57990;BME280;58373;51.824;5.564;2023-03-22T04:46:15;100607.06;;;8.57;96.88
57990;BME280;58373;51.824;5.564;2023-03-22T04:48:42;100608.97;;;8.55;96.43
57990;BME280;58373;51.824;5.564;2023-03-22T04:51:08;100602.94;;;8.54;97.03
57990;BME280;58373;51.824;5.564;2023-03-22T04:53:34;100600.47;;;8.52;96.84
57990;BME280;58373;51.824;5.564;2023-03-22T04:56:02;100610.00;;;8.52;96.76
57990;BME280;58373;51.824;5.564;2023-03-22T04:58:29;100597.19;;;8.50;97.04
57990;BME280;58373;51.824;5.564;2023-03-22T05:00:54;100592.97;;;8.49;96.93
57990;BME280;58373;51.824;5.564;2023-03-22T05:03:20;100595.56;;;8.49;97.13
57990;BME280;58373;51.824;5.564;2023-03-22T05:05:51;100596.38;;;8.50;96.84
57990;BME280;58373;51.824;5.564;2023-03-22T05:08:17;100590.28;;;8.51;97.24
57990;BME280;58373;51.824;5.564;2023-03-22T05:10:43;100573.94;;;8.50;96.87
57990;BME280;58373;51.824;5.564;2023-03-22T05:13:08;100586.88;;;8.50;97.12
57990;BME280;58373;51.824;5.564;2023-03-22T05:15:33;100595.31;;;8.52;96.79
57990;BME280;58373;51.824;5.564;2023-03-22T05:17:58;100584.16;;;8.52;97.15
57990;BME280;58373;51.824;5.564;2023-03-22T05:20:24;100586.88;;;8.50;97.35
57990;BME280;58373;51.824;5.564;2023-03-22T05:22:49;100586.03;;;8.50;97.07
57990;BME280;58373;51.824;5.564;2023-03-22T05:25:14;100589.44;;;8.50;97.03
57990;BME280;58373;51.824;5.564;2023-03-22T05:27:40;100583.56;;;8.48;97.12
57990;BME280;58373;51.824;5.564;2023-03-22T05:30:05;100587.09;;;8.47;96.92
57990;BME280;58373;51.824;5.564;2023-03-22T05:32:31;100591.44;;;8.47;96.59
57990;BME280;58373;51.824;5.564;2023-03-22T05:34:56;100586.38;;;8.45;96.96
57990;BME280;58373;51.824;5.564;2023-03-22T05:37:21;100582.16;;;8.44;96.56
57990;BME280;58373;51.824;5.564;2023-03-22T05:39:47;100587.56;;;8.41;96.84
57990;BME280;58373;51.824;5.564;2023-03-22T05:42:12;100588.38;;;8.42;96.73
57990;BME280;58373;51.824;5.564;2023-03-22T05:44:37;100582.63;;;8.38;96.94
57990;BME280;58373;51.824;5.564;2023-03-22T05:47:02;100580.63;;;8.42;97.02
57990;BME280;58373;51.824;5.564;2023-03-22T05:49:28;100579.09;;;8.39;96.57
57990;BME280;58373;51.824;5.564;2023-03-22T05:51:57;100574.88;;;8.38;96.45
57990;BME280;58373;51.824;5.564;2023-03-22T05:54:23;100569.00;;;8.36;96.76
57990;BME280;58373;51.824;5.564;2023-03-22T05:56:48;100574.16;;;8.36;96.62
57990;BME280;58373;51.824;5.564;2023-03-22T05:59:13;100572.50;;;8.35;96.86
57990;BME280;58373;51.824;5.564;2023-03-22T06:01:38;100570.84;;;8.34;96.52
57990;BME280;58373;51.824;5.564;2023-03-22T06:04:03;100570.84;;;8.34;96.72
57990;BME280;58373;51.824;5.564;2023-03-22T06:06:29;100570.84;;;8.34;96.72
57990;BME280;58373;51.824;5.564;2023-03-22T06:08:54;100565.69;;;8.34;96.71
57990;BME280;58373;51.824;5.564;2023-03-22T06:11:20;100572.50;;;8.35;96.60
57990;BME280;58373;51.824;5.564;2023-03-22T06:13:45;100568.16;;;8.36;96.52
57990;BME280;58373;51.824;5.564;2023-03-22T06:16:10;100569.91;;;8.35;96.83
57990;BME280;58373;51.824;5.564;2023-03-22T06:18:35;100572.50;;;8.35;96.24
57990;BME280;58373;51.824;5.564;2023-03-22T06:21:01;100564.72;;;8.35;96.54
57990;BME280;58373;51.824;5.564;2023-03-22T06:23:26;100571.66;;;8.35;96.60
57990;BME280;58373;51.824;5.564;2023-03-22T06:25:51;100572.50;;;8.35;96.70
57990;BME280;58373;51.824;5.564;2023-03-22T06:28:17;100558.66;;;8.36;96.28
57990;BME280;58373;51.824;5.564;2023-03-22T06:30:42;100561.00;;;8.39;96.13
57990;BME280;58373;51.824;5.564;2023-03-22T06:33:07;100568.78;;;8.39;96.34
57990;BME280;58373;51.824;5.564;2023-03-22T06:35:32;100570.19;;;8.43;95.87
57990;BME280;58373;51.824;5.564;2023-03-22T06:37:58;100569.25;;;8.44;95.90
57990;BME280;58373;51.824;5.564;2023-03-22T06:40:24;100568.28;;;8.45;96.11
57990;BME280;58373;51.824;5.564;2023-03-22T06:42:49;100579.34;;;8.47;96.13
57990;BME280;58373;51.824;5.564;2023-03-22T06:45:14;100571.34;;;8.50;95.98
57990;BME280;58373;51.824;5.564;2023-03-22T06:47:43;100569.47;;;8.52;95.65
57990;BME280;58373;51.824;5.564;2023-03-22T06:50:08;100570.88;;;8.57;95.47
57990;BME280;58373;51.824;5.564;2023-03-22T06:52:34;100567.34;;;8.58;95.38
57990;BME280;58373;51.824;5.564;2023-03-22T06:54:59;100572.03;;;8.64;95.23
57990;BME280;58373;51.824;5.564;2023-03-22T06:57:25;100568.50;;;8.65;95.41
57990;BME280;58373;51.824;5.564;2023-03-22T06:59:50;100561.22;;;8.70;95.46
57990;BME280;58373;51.824;5.564;2023-03-22T07:02:15;100569.69;;;8.72;95.12
57990;BME280;58373;51.824;5.564;2023-03-22T07:04:40;100574.41;;;8.78;94.92
57990;BME280;58373;51.824;5.564;2023-03-22T07:07:05;100572.03;;;8.86;94.73
57990;BME280;58373;51.824;5.564;2023-03-22T07:09:31;100576.72;;;8.92;94.48
57990;BME280;58373;51.824;5.564;2023-03-22T07:11:56;100574.59;;;8.97;94.53
57990;BME280;58373;51.824;5.564;2023-03-22T07:14:21;100579.53;;;9.00;94.54
57990;BME280;58373;51.824;5.564;2023-03-22T07:16:47;100575.72;;;9.04;94.26
57990;BME280;58373;51.824;5.564;2023-03-22T07:19:12;100573.88;;;9.07;93.72
57990;BME280;58373;51.824;5.564;2023-03-22T07:21:37;100562.69;;;9.06;93.86
57990;BME280;58373;51.824;5.564;2023-03-22T07:24:03;100565.28;;;9.06;93.46
57990;BME280;58373;51.824;5.564;2023-03-22T07:26:28;100558.09;;;9.10;93.84
57990;BME280;58373;51.824;5.564;2023-03-22T07:28:54;100572.44;;;9.14;93.19
57990;BME280;58373;51.824;5.564;2023-03-22T07:31:20;100577.16;;;9.09;93.63
57990;BME280;58373;51.824;5.564;2023-03-22T07:33:45;100579.59;;;9.10;93.00
57990;BME280;58373;51.824;5.564;2023-03-22T07:36:12;100566.78;;;9.09;93.07
57990;BME280;58373;51.824;5.564;2023-03-22T07:38:37;100570.78;;;9.13;92.50
57990;BME280;58373;51.824;5.564;2023-03-22T07:41:02;100566.31;;;9.15;93.13
57990;BME280;58373;51.824;5.564;2023-03-22T07:43:27;100578.28;;;9.16;93.47
57990;BME280;58373;51.824;5.564;2023-03-22T07:45:53;100585.84;;;9.19;93.23
57990;BME280;58373;51.824;5.564;2023-03-22T07:48:18;100575.94;;;9.24;92.67
57990;BME280;58373;51.824;5.564;2023-03-22T07:50:44;100577.09;;;9.31;92.05
57990;BME280;58373;51.824;5.564;2023-03-22T07:53:09;100580.84;;;9.27;92.26
57990;BME280;58373;51.824;5.564;2023-03-22T07:55:35;100577.09;;;9.31;92.53
57990;BME280;58373;51.824;5.564;2023-03-22T07:58:00;100582.00;;;9.34;92.36
57990;BME280;58373;51.824;5.564;2023-03-22T08:00:26;100575.63;;;9.38;92.49
57990;BME280;58373;51.824;5.564;2023-03-22T08:02:51;100577.94;;;9.52;90.96
57990;BME280;58373;51.824;5.564;2023-03-22T08:05:16;100576.91;;;9.44;91.77
57990;BME280;58373;51.824;5.564;2023-03-22T08:07:42;100566.88;;;9.50;91.92
57990;BME280;58373;51.824;5.564;2023-03-22T08:10:07;100571.09;;;9.51;91.29
57990;BME280;58373;51.824;5.564;2023-03-22T08:12:32;100577.00;;;9.53;91.18
57990;BME280;58373;51.824;5.564;2023-03-22T08:14:58;100576.50;;;9.60;91.23
57990;BME280;58373;51.824;5.564;2023-03-22T08:17:23;100584.94;;;9.62;90.54
57990;BME280;58373;51.824;5.564;2023-03-22T08:19:50;100584.22;;;9.71;90.36
57990;BME280;58373;51.824;5.564;2023-03-22T08:22:15;100584.44;;;9.68;91.05
57990;BME280;58373;51.824;5.564;2023-03-22T08:24:40;100591.84;;;9.72;90.73
57990;BME280;58373;51.824;5.564;2023-03-22T08:27:05;100583.94;;;9.74;89.86
57990;BME280;58373;51.824;5.564;2023-03-22T08:29:31;100587.34;;;9.74;90.15
57990;BME280;58373;51.824;5.564;2023-03-22T08:31:56;100580.44;;;9.75;89.96
57990;BME280;58373;51.824;5.564;2023-03-22T08:34:26;100582.94;;;9.86;88.86
57990;BME280;58373;51.824;5.564;2023-03-22T08:36:51;100578.19;;;9.91;89.07
57990;BME280;58373;51.824;5.564;2023-03-22T08:39:16;100577.00;;;9.95;88.75
57990;BME280;58373;51.824;5.564;2023-03-22T08:41:41;100563.91;;;9.97;87.58
57990;BME280;58373;51.824;5.564;2023-03-22T08:44:07;100576.06;;;9.96;87.53
57990;BME280;58373;51.824;5.564;2023-03-22T08:46:32;100565.31;;;10.01;88.02
57990;BME280;58373;51.824;5.564;2023-03-22T08:48:57;100560.94;;;10.01;86.80
57990;BME280;58373;51.824;5.564;2023-03-22T08:51:25;100575.22;;;10.17;86.77
57990;BME280;58373;51.824;5.564;2023-03-22T08:53:50;100566.44;;;10.08;85.81
57990;BME280;58373;51.824;5.564;2023-03-22T08:56:16;100570.81;;;10.07;86.99
57990;BME280;58373;51.824;5.564;2023-03-22T08:58:45;100571.69;;;10.18;85.57
57990;BME280;58373;51.824;5.564;2023-03-22T09:01:14;100571.69;;;10.18;85.02
57990;BME280;58373;51.824;5.564;2023-03-22T09:03:40;100563.56;;;10.32;84.41
57990;BME280;58373;51.824;5.564;2023-03-22T09:06:05;100564.34;;;10.23;85.30
57990;BME280;58373;51.824;5.564;2023-03-22T09:08:31;100559.88;;;10.25;85.66
57990;BME280;58373;51.824;5.564;2023-03-22T09:10:57;100565.50;;;10.30;84.95
57990;BME280;58373;51.824;5.564;2023-03-22T09:13:22;100564.72;;;10.39;84.08
57990;BME280;58373;51.824;5.564;2023-03-22T09:15:47;100553.56;;;10.48;83.99
57990;BME280;58373;51.824;5.564;2023-03-22T09:18:14;100563.91;;;10.39;84.79
57990;BME280;58373;51.824;5.564;2023-03-22T09:20:40;100556.84;;;10.50;83.83
57990;BME280;58373;51.824;5.564;2023-03-22T09:23:05;100568.16;;;10.49;84.35
57990;BME280;58373;51.824;5.564;2023-03-22T09:25:30;100556.56;;;10.53;84.19
57990;BME280;58373;51.824;5.564;2023-03-22T09:27:56;100555.63;;;10.54;84.18
57990;BME280;58373;51.824;5.564;2023-03-22T09:30:21;100551.66;;;10.50;83.83
57990;BME280;58373;51.824;5.564;2023-03-22T09:32:46;100549.47;;;10.46;83.03
57990;BME280;58373;51.824;5.564;2023-03-22T09:35:12;100555.47;;;10.46;83.55
57990;BME280;58373;51.824;5.564;2023-03-22T09:37:37;100557.38;;;10.44;83.53
57990;BME280;58373;51.824;5.564;2023-03-22T09:40:03;100549.09;;;10.60;81.25
57990;BME280;58373;51.824;5.564;2023-03-22T09:42:44;100561.75;;;10.53;81.45
57990;BME280;58373;51.824;5.564;2023-03-22T09:45:12;100565.69;;;10.48;81.73
57990;BME280;58373;51.824;5.564;2023-03-22T09:47:40;100555.47;;;10.46;81.81
57990;BME280;58373;51.824;5.564;2023-03-22T09:50:18;100555.72;;;10.43;82.38
57990;BME280;58373;51.824;5.564;2023-03-22T09:52:44;100554.81;;;10.54;81.48
57990;BME280;58373;51.824;5.564;2023-03-22T09:55:16;100555.47;;;10.46;82.23
57990;BME280;58373;51.824;5.564;2023-03-22T09:57:41;100547.59;;;10.57;81.81
57990;BME280;58373;51.824;5.564;2023-03-22T10:00:10;100551.56;;;10.61;80.49
57990;BME280;58373;51.824;5.564;2023-03-22T10:05:13;100558.50;;;10.51;81.55
57990;BME280;58373;51.824;5.564;2023-03-22T10:10:20;100551.38;;;10.53;81.81
57990;BME280;58373;51.824;5.564;2023-03-22T10:15:23;100554.69;;;10.55;81.82
57990;BME280;58373;51.824;5.564;2023-03-22T10:17:51;100556.91;;;10.70;80.82
57990;BME280;58373;51.824;5.564;2023-03-22T10:22:42;100564.88;;;10.47;81.87
57990;BME280;58373;51.824;5.564;2023-03-22T10:25:11;100560.94;;;10.53;82.63
57990;BME280;58373;51.824;5.564;2023-03-22T10:27:39;100560.34;;;10.40;83.58
57990;BME280;58373;51.824;5.564;2023-03-22T10:32:37;100567.13;;;10.31;84.97
57990;BME280;58373;51.824;5.564;2023-03-22T10:35:04;100566.34;;;10.19;85.03
57990;BME280;58373;51.824;5.564;2023-03-22T10:37:33;100561.31;;;10.18;85.82
57990;BME280;58373;51.824;5.564;2023-03-22T10:40:01;100561.31;;;10.18;85.90
57990;BME280;58373;51.824;5.564;2023-03-22T10:42:30;100558.34;;;10.22;86.61
57990;BME280;58373;51.824;5.564;2023-03-22T10:47:43;100562.06;;;10.08;87.84
57990;BME280;58373;51.824;5.564;2023-03-22T10:50:07;100563.47;;;10.13;88.22
57990;BME280;58373;51.824;5.564;2023-03-22T10:52:58;100575.09;;;9.97;89.21
57990;BME280;58373;51.824;5.564;2023-03-22T10:55:22;100571.81;;;9.95;89.40
57990;BME280;58373;51.824;5.564;2023-03-22T10:58:33;100570.44;;;9.91;90.32
57990;BME280;58373;51.824;5.564;2023-03-22T11:00:33;100567.59;;;9.94;90.08
57990;BME280;58373;51.824;5.564;2023-03-22T11:02:59;100580.72;;;10.02;91.17
57990;BME280;58373;51.824;5.564;2023-03-22T11:05:26;100566.03;;;9.82;91.29
57990;BME280;58373;51.824;5.564;2023-03-22T11:07:51;100569.81;;;9.78;91.91
57990;BME280;58373;51.824;5.564;2023-03-22T11:12:47;100562.31;;;9.75;92.44
57990;BME280;58373;51.824;5.564;2023-03-22T11:15:29;100562.31;;;9.75;93.12
57990;BME280;58373;51.824;5.564;2023-03-22T11:18:00;100563.81;;;9.77;93.58
57990;BME280;58373;51.824;5.564;2023-03-22T11:20:26;100560.53;;;9.75;94.04
57990;BME280;58373;51.824;5.564;2023-03-22T11:22:51;100563.00;;;9.77;93.75
57990;BME280;58373;51.824;5.564;2023-03-22T11:25:21;100549.91;;;9.78;93.05
57990;BME280;58373;51.824;5.564;2023-03-22T11:27:56;100545.31;;;9.82;93.57
57990;BME280;58373;51.824;5.564;2023-03-22T11:30:30;100548.06;;;9.90;94.23
57990;BME280;58373;51.824;5.564;2023-03-22T11:32:59;100556.97;;;9.97;94.86
57990;BME280;58373;51.824;5.564;2023-03-22T11:35:25;100547.31;;;9.99;94.40
57990;BME280;58373;51.824;5.564;2023-03-22T11:37:53;100547.63;;;10.06;94.83
57990;BME280;58373;51.824;5.564;2023-03-22T11:42:44;100552.59;;;10.19;94.23
57990;BME280;58373;51.824;5.564;2023-03-22T11:45:14;100553.41;;;10.19;94.10
57990;BME280;58373;51.824;5.564;2023-03-22T11:47:40;100552.72;;;10.17;94.67
57990;BME280;58373;51.824;5.564;2023-03-22T11:50:07;100560.13;;;10.22;94.14
57990;BME280;58373;51.824;5.564;2023-03-22T11:52:34;100545.28;;;10.24;93.82
57990;BME280;58373;51.824;5.564;2023-03-22T11:55:00;100541.16;;;10.21;93.73
57990;BME280;58373;51.824;5.564;2023-03-22T11:57:26;100541.97;;;10.22;94.16
57990;BME280;58373;51.824;5.564;2023-03-22T12:02:25;100537.84;;;10.19;93.28
57990;BME280;58373;51.824;5.564;2023-03-22T12:04:59;100537.03;;;10.19;93.75
57990;BME280;58373;51.824;5.564;2023-03-22T12:07:27;100540.44;;;10.19;92.95
57990;BME280;58373;51.824;5.564;2023-03-22T12:09:57;100538.13;;;10.16;92.74
57990;BME280;58373;51.824;5.564;2023-03-22T12:12:32;100539.28;;;10.23;92.48
57990;BME280;58373;51.824;5.564;2023-03-22T12:15:01;100535.41;;;10.18;92.45
57990;BME280;58373;51.824;5.564;2023-03-22T12:17:35;100556.94;;;10.18;93.11
57990;BME280;58373;51.824;5.564;2023-03-22T12:20:03;100557.03;;;10.28;92.46
57990;BME280;58373;51.824;5.564;2023-03-22T12:22:33;100561.06;;;10.21;92.61
57990;BME280;58373;51.824;5.564;2023-03-22T12:24:59;100553.72;;;10.26;92.32
57990;BME280;58373;51.824;5.564;2023-03-22T12:27:30;100557.28;;;10.25;91.98
57990;BME280;58373;51.824;5.564;2023-03-22T12:30:00;100544.50;;;10.33;92.27
57990;BME280;58373;51.824;5.564;2023-03-22T12:32:31;100541.72;;;10.25;92.15
57990;BME280;58373;51.824;5.564;2023-03-22T12:34:57;100548.31;;;10.29;92.25
57990;BME280;58373;51.824;5.564;2023-03-22T12:37:25;100548.53;;;10.26;91.55
57990;BME280;58373;51.824;5.564;2023-03-22T12:39:53;100548.31;;;10.29;92.30
57990;BME280;58373;51.824;5.564;2023-03-22T12:42:21;100540.00;;;10.35;92.00
57990;BME280;58373;51.824;5.564;2023-03-22T12:44:47;100541.22;;;10.31;91.40
57990;BME280;58373;51.824;5.564;2023-03-22T12:47:20;100545.03;;;10.36;91.40
57990;BME280;58373;51.824;5.564;2023-03-22T12:49:55;100550.91;;;10.29;90.85
57990;BME280;58373;51.824;5.564;2023-03-22T12:52:25;100543.13;;;10.29;91.88
57990;BME280;58373;51.824;5.564;2023-03-22T12:54:55;100542.34;;;10.38;90.66
57990;BME280;58373;51.824;5.564;2023-03-22T12:57:23;100541.47;;;10.28;90.86
57990;BME280;58373;51.824;5.564;2023-03-22T12:59:49;100542.84;;;10.32;90.91
57990;BME280;58373;51.824;5.564;2023-03-22T13:02:22;100551.84;;;10.28;91.72
57990;BME280;58373;51.824;5.564;2023-03-22T13:05:00;100540.78;;;10.26;90.95
57990;BME280;58373;51.824;5.564;2023-03-22T13:09:54;100525.78;;;10.29;91.02
57990;BME280;58373;51.824;5.564;2023-03-22T13:30:12;100539.47;;;10.41;90.75
57990;BME280;58373;51.824;5.564;2023-03-22T13:32:41;100532.28;;;10.45;90.21
57990;BME280;58373;51.824;5.564;2023-03-22T13:35:18;100542.94;;;10.51;88.73
57990;BME280;58373;51.824;5.564;2023-03-22T13:37:46;100543.47;;;10.45;89.28
57990;BME280;58373;51.824;5.564;2023-03-22T13:40:13;100541.53;;;10.47;89.25
57990;BME280;58373;51.824;5.564;2023-03-22T13:42:46;100534.44;;;10.49;89.20
57990;BME280;58373;51.824;5.564;2023-03-22T13:45:55;100539.91;;;10.46;89.65
57990;BME280;58373;51.824;5.564;2023-03-22T13:48:26;100536.34;;;10.47;89.39
57990;BME280;58373;51.824;5.564;2023-03-22T13:50:51;100531.47;;;10.54;89.58
57990;BME280;58373;51.824;5.564;2023-03-22T13:53:22;100531.34;;;10.55;89.07
57990;BME280;58373;51.824;5.564;2023-03-22T14:01:05;100533.94;;;10.55;89.13
57990;BME280;58373;51.824;5.564;2023-03-22T14:03:33;100534.22;;;10.62;89.18
57990;BME280;58373;51.824;5.564;2023-03-22T14:06:04;100534.63;;;10.57;90.46
57990;BME280;58373;51.824;5.564;2023-03-22T14:08:31;100530.94;;;10.50;90.75
57990;BME280;58373;51.824;5.564;2023-03-22T14:11:02;100531.16;;;10.47;91.03
57990;BME280;58373;51.824;5.564;2023-03-22T14:13:35;100522.72;;;10.45;91.59
57990;BME280;58373;51.824;5.564;2023-03-22T14:16:14;100528.84;;;10.44;92.79